createdAt,value
2022-11-30T00:01:22.587Z,36.33
2022-11-30T00:03:54.954Z,31.63
2022-11-30T00:06:25.237Z,30.00
2022-11-30T00:08:56.859Z,21.95
2022-11-30T00:11:25.764Z,29.23
2022-11-30T00:13:53.412Z,25.60
2022-11-30T00:16:21.202Z,23.53
2022-11-30T00:18:48.242Z,32.93
2022-11-30T00:21:15.678Z,19.67
2022-11-30T00:23:44.029Z,25.03
2022-11-30T00:26:14.067Z,32.97
2022-11-30T00:28:42.193Z,26.02
2022-11-30T00:31:12.206Z,29.87
2022-11-30T00:33:40.009Z,29.27
2022-11-30T00:36:18.719Z,32.20
2022-11-30T00:38:46.291Z,29.53
2022-11-30T00:41:14.097Z,27.80
2022-11-30T00:43:41.524Z,31.40
2022-11-30T00:46:09.522Z,32.60
2022-11-30T00:48:37.700Z,25.13
2022-11-30T00:51:05.745Z,30.70
2022-11-30T00:53:32.897Z,28.97
2022-11-30T00:55:59.958Z,19.20
2022-11-30T00:58:26.974Z,32.57
2022-11-30T01:00:54.106Z,32.40
2022-11-30T01:03:21.172Z,31.80
2022-11-30T01:05:48.274Z,33.60
2022-11-30T01:08:15.494Z,24.73
2022-11-30T01:10:44.246Z,28.33
2022-11-30T01:13:14.587Z,18.50
2022-11-30T01:15:44.206Z,31.40
2022-11-30T01:18:11.877Z,26.60
2022-11-30T01:20:45.055Z,40.10
2022-11-30T01:23:12.035Z,30.67
2022-11-30T01:25:39.817Z,27.83
2022-11-30T01:28:09.220Z,28.13
2022-11-30T01:30:58.192Z,29.30
2022-11-30T01:33:25.855Z,21.00
2022-11-30T01:36:03.390Z,27.97
2022-11-30T01:38:38.913Z,28.40
2022-11-30T01:41:08.366Z,26.00
2022-11-30T01:43:53.927Z,35.37
2022-11-30T01:46:28.873Z,25.90
2022-11-30T01:49:18.316Z,21.63
2022-11-30T01:52:07.889Z,31.20
2022-11-30T01:54:43.140Z,18.33
2022-11-30T01:57:20.901Z,37.03
2022-11-30T01:59:50.054Z,28.03
2022-11-30T02:02:26.486Z,19.27
2022-11-30T02:04:53.662Z,22.67
2022-11-30T02:07:21.199Z,20.37
2022-11-30T02:09:48.247Z,25.07
2022-11-30T02:12:44.049Z,22.97
2022-11-30T02:15:21.949Z,32.60
2022-11-30T02:18:11.575Z,28.73
2022-11-30T02:20:55.275Z,20.73
2022-11-30T02:23:48.610Z,15.30
2022-11-30T02:26:30.979Z,35.10
2022-11-30T02:29:27.348Z,20.03
2022-11-30T02:32:05.171Z,26.73
2022-11-30T02:34:35.179Z,26.87
2022-11-30T02:37:03.844Z,28.40
2022-11-30T02:39:30.867Z,29.47
2022-11-30T02:41:57.848Z,27.43
2022-11-30T02:44:25.561Z,34.83
2022-11-30T02:47:10.907Z,38.47
2022-11-30T02:49:46.223Z,12.73
2022-11-30T02:52:15.257Z,21.07
2022-11-30T02:54:42.572Z,31.73
2022-11-30T02:57:09.757Z,16.07
2022-11-30T02:59:36.910Z,19.40
2022-11-30T03:02:03.923Z,19.17
2022-11-30T03:04:30.889Z,25.40
2022-11-30T03:06:57.937Z,23.00
2022-11-30T03:09:26.109Z,17.20
2022-11-30T03:11:53.094Z,12.97
2022-11-30T03:14:20.091Z,24.80
2022-11-30T03:16:47.139Z,9.47
2022-11-30T03:19:14.374Z,21.13
2022-11-30T03:21:41.388Z,12.57
2022-11-30T03:24:08.465Z,28.40
2022-11-30T03:26:35.492Z,21.70
2022-11-30T03:29:02.607Z,26.33
2022-11-30T03:31:29.851Z,19.47
2022-11-30T03:33:56.976Z,18.67
2022-11-30T03:36:24.214Z,25.00
2022-11-30T03:38:51.265Z,20.97
2022-11-30T03:41:19.234Z,23.27
2022-11-30T03:43:47.330Z,24.87
2022-11-30T03:46:15.230Z,19.27
2022-11-30T03:48:44.840Z,27.58
2022-11-30T03:51:12.766Z,37.03
2022-11-30T03:53:40.691Z,13.37
2022-11-30T03:56:10.266Z,16.13
2022-11-30T03:58:37.523Z,22.37
2022-11-30T04:01:14.175Z,21.63
2022-11-30T04:03:41.614Z,25.83
2022-11-30T04:06:12.634Z,15.23
2022-11-30T04:08:39.788Z,28.87
2022-11-30T04:11:07.381Z,32.47
2022-11-30T04:13:36.109Z,35.10
2022-11-30T04:16:03.585Z,37.40
2022-11-30T04:18:31.981Z,36.10
2022-11-30T04:21:00.611Z,27.87
2022-11-30T04:23:34.470Z,28.77
2022-11-30T04:26:03.914Z,21.20
2022-11-30T04:28:31.000Z,26.93
2022-11-30T04:31:00.446Z,22.53
2022-11-30T04:33:30.764Z,14.93
2022-11-30T04:36:01.592Z,25.23
2022-11-30T04:38:29.871Z,18.60
2022-11-30T04:40:56.936Z,18.13
2022-11-30T04:43:24.138Z,21.60
2022-11-30T04:45:51.759Z,16.70
2022-11-30T04:48:19.414Z,21.07
2022-11-30T04:50:46.468Z,23.90
2022-11-30T04:53:13.534Z,33.10
2022-11-30T04:55:40.516Z,23.83
2022-11-30T04:58:08.234Z,30.70
2022-11-30T05:00:36.089Z,15.33
2022-11-30T05:03:03.207Z,26.23
2022-11-30T05:05:30.289Z,29.53
2022-11-30T05:07:59.500Z,25.37
2022-11-30T05:10:28.218Z,30.80
2022-11-30T05:12:55.645Z,22.77
2022-11-30T05:15:22.947Z,23.57
2022-11-30T05:17:52.423Z,28.70
2022-11-30T05:20:19.466Z,15.97
2022-11-30T05:22:49.001Z,24.90
2022-11-30T05:25:16.142Z,19.93
2022-11-30T05:27:43.120Z,21.30
2022-11-30T05:30:10.547Z,23.77
2022-11-30T05:32:37.806Z,15.07
2022-11-30T05:35:05.119Z,33.97
2022-11-30T05:37:32.328Z,10.87
2022-11-30T05:39:59.309Z,20.00
2022-11-30T05:42:26.923Z,19.93
2022-11-30T05:44:54.044Z,28.70
2022-11-30T05:47:21.026Z,21.77
2022-11-30T05:49:47.987Z,27.00
2022-11-30T05:52:14.969Z,27.30
2022-11-30T05:54:41.908Z,22.33
2022-11-30T05:57:08.884Z,29.00
2022-11-30T05:59:35.832Z,19.77
2022-11-30T06:02:02.918Z,34.80
2022-11-30T06:04:30.049Z,21.43
2022-11-30T06:06:57.290Z,27.43
2022-11-30T06:09:24.716Z,28.93
2022-11-30T06:11:51.772Z,29.43
2022-11-30T06:14:18.773Z,32.67
2022-11-30T06:16:46.295Z,23.67
2022-11-30T06:19:13.317Z,22.40
2022-11-30T06:21:40.311Z,28.33
2022-11-30T06:24:08.572Z,31.50
2022-11-30T06:26:35.556Z,17.67
2022-11-30T06:29:02.626Z,29.53
2022-11-30T06:31:31.449Z,32.03
2022-11-30T06:33:59.317Z,26.67
2022-11-30T06:36:28.951Z,20.73
2022-11-30T06:39:01.162Z,18.37
2022-11-30T06:41:28.309Z,15.93
2022-11-30T06:43:55.314Z,17.17
2022-11-30T06:46:22.499Z,27.30
2022-11-30T06:48:50.975Z,19.40
2022-11-30T06:51:18.391Z,37.63
2022-11-30T06:53:45.911Z,28.57
2022-11-30T06:56:13.116Z,40.47
2022-11-30T06:58:40.981Z,39.43
2022-11-30T07:01:10.192Z,29.57
2022-11-30T07:03:37.436Z,33.40
2022-11-30T07:06:14.660Z,31.70
2022-11-30T07:08:42.538Z,31.10
2022-11-30T07:11:10.873Z,34.33
2022-11-30T07:13:38.480Z,25.70
2022-11-30T07:16:07.483Z,13.20
2022-11-30T07:18:35.355Z,27.13
2022-11-30T07:21:04.280Z,34.03
2022-11-30T07:23:55.815Z,27.20
2022-11-30T07:26:24.385Z,31.30
2022-11-30T07:28:58.444Z,26.10
2022-11-30T07:31:29.811Z,54.37
2022-11-30T07:33:58.788Z,36.00
2022-11-30T07:36:27.383Z,52.73
2022-11-30T07:38:54.449Z,39.40
2022-11-30T07:41:22.073Z,45.70
2022-11-30T07:43:49.049Z,95.13
2022-11-30T07:46:16.908Z,43.97
2022-11-30T07:48:45.455Z,47.53
2022-11-30T07:51:14.988Z,56.17
2022-11-30T07:53:41.980Z,54.67
2022-11-30T07:56:15.321Z,80.73
2022-11-30T07:58:42.960Z,55.03
2022-11-30T08:01:22.493Z,30.23
2022-11-30T08:03:51.114Z,37.23
2022-11-30T08:06:21.065Z,44.07
2022-11-30T08:08:50.657Z,47.97
2022-11-30T08:11:23.553Z,56.90
2022-11-30T08:13:51.194Z,77.67
2022-11-30T08:16:21.391Z,51.20
2022-11-30T08:18:49.083Z,41.70
2022-11-30T08:21:18.589Z,49.77
2022-11-30T08:23:48.895Z,43.40
2022-11-30T08:26:19.044Z,54.10
2022-11-30T08:28:47.590Z,61.67
2022-11-30T08:31:35.674Z,47.10
2022-11-30T08:34:06.516Z,63.43
2022-11-30T08:36:34.281Z,50.95
2022-11-30T08:39:04.386Z,48.97
2022-11-30T08:41:31.949Z,48.40
2022-11-30T08:43:59.126Z,44.83
2022-11-30T08:49:22.680Z,59.73
2022-11-30T08:54:40.192Z,41.37
2022-11-30T08:57:07.191Z,44.67
2022-11-30T08:59:34.243Z,37.37
2022-11-30T09:02:01.245Z,44.60
2022-11-30T09:04:28.281Z,47.53
2022-11-30T09:06:59.182Z,46.77
2022-11-30T09:09:26.513Z,51.60
2022-11-30T09:11:53.482Z,41.13
2022-11-30T09:14:20.556Z,38.97
2022-11-30T09:16:47.826Z,53.87
2022-11-30T09:19:16.151Z,41.00
2022-11-30T09:21:48.084Z,51.53
2022-11-30T09:24:18.145Z,45.33
2022-11-30T09:26:45.180Z,36.27
2022-11-30T09:29:12.218Z,41.83
2022-11-30T09:31:40.671Z,41.43
2022-11-30T09:34:07.731Z,42.80
2022-11-30T09:36:36.634Z,54.40
2022-11-30T09:39:04.335Z,45.23
2022-11-30T09:41:55.908Z,36.20
2022-11-30T09:44:34.967Z,36.43
2022-11-30T09:47:07.826Z,44.30
2022-11-30T09:49:37.713Z,30.23
2022-11-30T09:52:10.252Z,59.40
2022-11-30T09:54:40.042Z,68.47
2022-11-30T09:57:22.074Z,40.87
2022-11-30T09:59:55.992Z,51.80
2022-11-30T10:02:28.426Z,57.83
2022-11-30T10:04:55.969Z,27.97
2022-11-30T10:07:41.546Z,46.87
2022-11-30T10:10:32.188Z,53.10
2022-11-30T10:13:12.745Z,46.90
2022-11-30T10:15:57.778Z,40.53
2022-11-30T10:19:02.285Z,61.17
2022-11-30T10:22:01.583Z,37.27
2022-11-30T10:25:06.015Z,62.90
2022-11-30T10:27:54.943Z,29.00
2022-11-30T10:30:29.466Z,46.63
2022-11-30T10:33:02.431Z,54.93
2022-11-30T10:35:38.902Z,64.27
2022-11-30T10:38:17.069Z,41.83
2022-11-30T10:41:05.055Z,45.67
2022-11-30T10:43:41.821Z,42.53
2022-11-30T10:46:28.711Z,44.13
2022-11-30T10:49:12.493Z,49.57
2022-11-30T10:51:43.384Z,45.63
2022-11-30T10:54:20.334Z,43.47
2022-11-30T10:56:47.692Z,47.23
2022-11-30T10:59:47.317Z,53.07
2022-11-30T11:02:34.838Z,52.50
2022-11-30T11:05:25.315Z,46.60
2022-11-30T11:07:55.406Z,43.28
2022-11-30T11:10:42.959Z,34.83
2022-11-30T11:13:37.349Z,46.03
2022-11-30T11:16:06.272Z,42.87
2022-11-30T11:18:34.616Z,58.13
2022-11-30T11:21:07.401Z,58.70
2022-11-30T11:23:41.267Z,46.27
2022-11-30T11:26:18.108Z,58.27
2022-11-30T11:28:48.286Z,46.73
2022-11-30T11:31:35.765Z,53.13
2022-11-30T11:34:04.242Z,57.80
2022-11-30T11:36:33.276Z,56.47
2022-11-30T11:39:01.283Z,44.33
2022-11-30T11:41:37.629Z,48.00
2022-11-30T11:44:10.612Z,39.97
2022-11-30T11:47:02.449Z,48.03
2022-11-30T11:49:38.822Z,51.83
2022-11-30T11:52:07.125Z,48.40
2022-11-30T11:55:11.349Z,49.07
2022-11-30T11:57:56.601Z,40.17
2022-11-30T12:00:26.711Z,41.90
2022-11-30T12:03:18.547Z,37.13
2022-11-30T12:05:53.698Z,43.70
2022-11-30T12:09:06.585Z,44.20
2022-11-30T12:11:42.765Z,35.60
2022-11-30T12:14:15.552Z,40.43
2022-11-30T12:16:54.430Z,43.77
2022-11-30T12:19:44.450Z,44.73
2022-11-30T12:22:34.373Z,36.53
2022-11-30T12:25:29.348Z,36.87
2022-11-30T12:28:32.848Z,33.57
2022-11-30T12:31:12.761Z,37.10
2022-11-30T12:33:57.560Z,35.90
2022-11-30T12:36:38.871Z,41.87
2022-11-30T12:39:10.159Z,24.73
2022-11-30T12:41:37.134Z,25.17
2022-11-30T12:44:28.948Z,37.87
2022-11-30T12:47:26.780Z,25.80
2022-11-30T12:50:15.537Z,42.67
2022-11-30T12:52:59.986Z,45.97
2022-11-30T12:55:46.157Z,26.57
2022-11-30T12:58:45.507Z,33.83
2022-11-30T13:01:30.866Z,42.80
2022-11-30T13:04:25.524Z,36.57
2022-11-30T13:06:56.068Z,38.23
2022-11-30T13:09:35.100Z,38.30
2022-11-30T13:12:16.474Z,36.10
2022-11-30T13:14:44.029Z,30.27
2022-11-30T13:17:18.670Z,46.63
2022-11-30T13:20:07.705Z,34.03
2022-11-30T13:22:50.773Z,34.53
2022-11-30T13:26:08.660Z,44.53
2022-11-30T13:28:42.648Z,35.73
2022-11-30T13:31:24.531Z,43.57
2022-11-30T13:33:54.534Z,36.93
2022-11-30T13:36:29.199Z,35.60
2022-11-30T13:39:14.528Z,37.80
2022-11-30T13:41:43.767Z,37.77
2022-11-30T13:44:43.254Z,42.87
2022-11-30T13:47:36.596Z,36.13
2022-11-30T13:50:15.350Z,41.90
2022-11-30T13:53:00.793Z,36.53
2022-11-30T13:55:42.739Z,39.23
2022-11-30T13:58:11.591Z,40.03
2022-11-30T14:00:38.833Z,39.73
2022-11-30T14:06:28.898Z,42.93
2022-11-30T14:08:56.152Z,43.53
2022-11-30T14:11:39.243Z,38.83
2022-11-30T14:14:45.825Z,33.60
2022-11-30T14:17:24.162Z,35.33
2022-11-30T14:19:57.019Z,40.20
2022-11-30T14:22:26.392Z,34.47
2022-11-30T14:24:54.506Z,34.73
2022-11-30T14:27:25.832Z,40.90
2022-11-30T14:29:59.506Z,40.57
2022-11-30T14:32:35.491Z,37.37
2022-11-30T14:35:08.319Z,53.37
2022-11-30T14:37:51.427Z,55.97
2022-11-30T14:40:21.919Z,44.33
2022-11-30T14:42:54.536Z,45.87
2022-11-30T14:45:25.088Z,41.00
2022-11-30T14:48:03.758Z,44.15
2022-11-30T14:50:31.239Z,44.37
2022-11-30T14:53:18.530Z,39.60
2022-11-30T14:55:56.730Z,37.93
2022-11-30T14:58:32.737Z,44.83
2022-11-30T15:01:00.032Z,38.63
2022-11-30T15:03:33.558Z,40.87
2022-11-30T15:06:05.682Z,35.17
2022-11-30T15:08:39.097Z,44.47
2022-11-30T15:11:11.545Z,41.43
2022-11-30T15:13:43.938Z,44.37
2022-11-30T15:16:37.221Z,42.40
2022-11-30T15:19:23.337Z,43.80
2022-11-30T15:21:51.810Z,41.43
2022-11-30T15:24:19.350Z,42.03
2022-11-30T15:27:08.633Z,45.43
2022-11-30T15:32:23.134Z,38.87
2022-11-30T15:34:57.500Z,41.97
2022-11-30T15:37:42.684Z,47.53
2022-11-30T15:40:14.527Z,58.87
2022-11-30T15:42:42.145Z,40.57
2022-11-30T15:45:24.421Z,40.63
2022-11-30T15:47:53.259Z,46.73
2022-11-30T15:50:26.335Z,46.57
2022-11-30T15:53:14.785Z,49.07
2022-11-30T15:55:47.049Z,51.53
2022-11-30T15:58:37.819Z,46.07
2022-11-30T16:01:05.657Z,39.05
2022-11-30T16:03:34.880Z,42.00
2022-11-30T16:06:07.187Z,46.17
2022-11-30T16:08:34.698Z,54.43
2022-11-30T16:11:07.440Z,50.13
2022-11-30T16:13:35.144Z,42.03
2022-11-30T16:16:02.495Z,42.63
2022-11-30T16:18:29.566Z,40.97
2022-11-30T16:21:01.820Z,41.40
2022-11-30T16:23:29.827Z,46.00
2022-11-30T16:25:57.022Z,45.87
2022-11-30T16:28:24.141Z,41.67
2022-11-30T16:30:53.765Z,48.63
2022-11-30T16:33:23.125Z,37.17
2022-11-30T16:36:02.747Z,41.13
2022-11-30T16:38:31.033Z,38.33
2022-11-30T16:41:17.117Z,39.30
2022-11-30T16:43:45.793Z,40.33
2022-11-30T16:46:15.400Z,35.97
2022-11-30T16:48:44.249Z,42.07
2022-11-30T16:51:32.255Z,45.83
2022-11-30T16:53:59.348Z,45.47
2022-11-30T16:56:26.939Z,40.63
2022-11-30T16:58:54.910Z,38.37
2022-11-30T17:01:33.163Z,42.00
2022-11-30T17:04:12.588Z,36.60
2022-11-30T17:06:40.042Z,42.10
2022-11-30T17:09:12.149Z,44.47
2022-11-30T17:11:39.480Z,43.33
2022-11-30T17:14:07.723Z,49.57
2022-11-30T17:16:34.974Z,39.90
2022-11-30T17:19:02.038Z,50.43
2022-11-30T17:21:34.715Z,38.57
2022-11-30T17:24:01.856Z,47.73
2022-11-30T17:26:29.240Z,45.33
2022-11-30T17:28:56.326Z,40.00
2022-11-30T17:31:23.731Z,47.80
2022-11-30T17:33:51.387Z,41.70
2022-11-30T17:36:23.504Z,49.10
2022-11-30T17:38:50.764Z,43.37
2022-11-30T17:41:20.119Z,51.27
2022-11-30T17:43:48.895Z,45.30
2022-11-30T17:46:18.359Z,46.57
2022-11-30T17:48:46.425Z,44.83
2022-11-30T17:51:14.102Z,43.50
2022-11-30T17:53:42.468Z,49.33
2022-11-30T17:56:15.062Z,46.83
2022-11-30T17:58:44.593Z,52.00
2022-11-30T18:01:23.501Z,46.27
2022-11-30T18:03:51.894Z,43.57
2022-11-30T18:06:19.545Z,61.07
2022-11-30T18:08:46.797Z,47.77
2022-11-30T18:11:20.584Z,44.57
2022-11-30T18:13:50.132Z,51.70
2022-11-30T18:16:29.275Z,37.80
2022-11-30T18:19:01.262Z,42.03
2022-11-30T18:21:32.215Z,46.37
2022-11-30T18:26:27.267Z,56.40
2022-11-30T18:28:59.293Z,43.40
2022-11-30T18:31:28.409Z,38.17
2022-11-30T18:33:57.450Z,35.17
2022-11-30T18:36:25.031Z,39.23
2022-11-30T18:38:52.180Z,39.67
2022-11-30T18:41:19.722Z,34.23
2022-11-30T18:43:46.945Z,38.77
2022-11-30T18:46:14.463Z,27.00
2022-11-30T18:48:42.053Z,42.00
2022-11-30T18:51:14.096Z,40.87
2022-11-30T18:53:42.124Z,39.43
2022-11-30T18:56:20.809Z,41.43
2022-11-30T18:58:48.871Z,44.70
2022-11-30T19:01:20.108Z,43.43
2022-11-30T19:03:55.848Z,43.00
2022-11-30T19:06:25.395Z,44.13
2022-11-30T19:08:52.545Z,40.70
2022-11-30T19:11:20.686Z,37.47
2022-11-30T19:13:47.801Z,38.87
2022-11-30T19:16:17.143Z,32.77
2022-11-30T19:18:47.325Z,34.43
2022-11-30T19:21:19.157Z,38.00
2022-11-30T19:23:46.971Z,47.43
2022-11-30T19:26:14.871Z,31.63
2022-11-30T19:28:43.834Z,35.20
2022-11-30T19:31:13.385Z,31.93
2022-11-30T19:33:43.248Z,38.87
2022-11-30T19:36:16.999Z,45.73
2022-11-30T19:38:44.280Z,34.70
2022-11-30T19:41:17.872Z,46.77
2022-11-30T19:43:52.995Z,41.37
2022-11-30T19:46:22.272Z,37.87
2022-11-30T19:48:49.397Z,40.57
2022-11-30T19:51:23.090Z,35.70
2022-11-30T19:53:57.715Z,41.67
2022-11-30T19:56:25.648Z,42.97
2022-11-30T19:58:52.871Z,30.53
2022-11-30T20:01:25.593Z,46.30
2022-11-30T20:03:55.189Z,45.33
2022-11-30T20:06:26.602Z,38.87
2022-11-30T20:08:53.764Z,39.37
2022-11-30T20:11:20.858Z,31.93
2022-11-30T20:13:48.108Z,36.87
2022-11-30T20:16:18.205Z,50.37
2022-11-30T20:18:50.763Z,36.90
2022-11-30T20:21:26.242Z,36.80
2022-11-30T20:23:54.911Z,45.37
2022-11-30T20:26:27.390Z,40.57
2022-11-30T20:28:54.426Z,38.33
2022-11-30T20:31:23.257Z,34.53
2022-11-30T20:33:51.103Z,41.73
2022-11-30T20:36:19.662Z,43.37
2022-11-30T20:38:47.449Z,41.13
2022-11-30T20:41:18.466Z,44.47
2022-11-30T20:46:24.654Z,46.33
2022-11-30T20:48:53.172Z,50.80
2022-11-30T20:51:30.558Z,37.87
2022-11-30T20:53:59.986Z,39.80
2022-11-30T20:56:27.027Z,50.30
2022-11-30T20:58:54.076Z,37.10
2022-11-30T21:01:22.419Z,43.03
2022-11-30T21:03:49.951Z,43.63
2022-11-30T21:06:17.448Z,37.13
2022-11-30T21:08:44.863Z,46.57
2022-11-30T21:11:14.507Z,39.53
2022-11-30T21:13:44.052Z,41.83
2022-11-30T21:16:12.145Z,57.77
2022-11-30T21:18:41.459Z,41.20
2022-11-30T21:21:12.248Z,40.77
2022-11-30T21:23:39.633Z,43.28
2022-11-30T21:26:09.120Z,41.40
2022-11-30T21:28:38.288Z,44.60
2022-11-30T21:31:06.055Z,38.30
2022-11-30T21:33:33.133Z,46.77
2022-11-30T21:36:00.221Z,41.87
2022-11-30T21:38:27.216Z,48.70
2022-11-30T21:41:00.078Z,48.43
2022-11-30T21:43:29.039Z,44.50
2022-11-30T21:46:03.662Z,45.53
2022-11-30T21:48:33.112Z,40.70
2022-11-30T21:51:20.829Z,59.93
2022-11-30T21:53:50.744Z,38.67
2022-11-30T21:56:24.013Z,49.97
2022-11-30T21:58:51.778Z,39.73
2022-11-30T22:01:22.020Z,38.67
2022-11-30T22:03:49.428Z,61.15
2022-11-30T22:06:18.866Z,49.93
2022-11-30T22:08:46.283Z,42.93
2022-11-30T22:11:16.322Z,44.17
2022-11-30T22:13:44.658Z,44.83
2022-11-30T22:16:14.371Z,43.17
2022-11-30T22:18:42.827Z,45.87
2022-11-30T22:21:15.402Z,51.80
2022-11-30T22:23:49.189Z,57.87
2022-11-30T22:26:23.311Z,46.77
2022-11-30T22:29:05.372Z,40.40
2022-11-30T22:31:38.908Z,44.37
2022-11-30T22:34:06.799Z,43.53
2022-11-30T22:36:35.623Z,53.87
2022-11-30T22:39:06.549Z,48.73
2022-11-30T22:44:00.920Z,39.53
2022-11-30T22:46:30.330Z,50.70
2022-11-30T22:49:02.788Z,46.73
2022-11-30T22:51:31.220Z,49.63
2022-11-30T22:53:59.079Z,44.23
2022-11-30T22:56:28.823Z,41.60
2022-11-30T22:59:00.029Z,49.27
2022-11-30T23:01:35.485Z,38.60
2022-11-30T23:04:09.383Z,47.80
2022-11-30T23:06:37.990Z,42.30
2022-11-30T23:09:07.513Z,43.17
2022-11-30T23:11:34.901Z,36.23
2022-11-30T23:14:06.376Z,47.87
2022-11-30T23:16:33.679Z,41.30
2022-11-30T23:19:00.837Z,44.50
2022-11-30T23:21:38.961Z,46.77
2022-11-30T23:24:09.678Z,42.30
2022-11-30T23:26:38.357Z,44.43
2022-11-30T23:29:08.395Z,52.33
2022-11-30T23:31:38.142Z,47.95
2022-11-30T23:34:20.055Z,55.00
2022-11-30T23:36:48.740Z,46.03
2022-11-30T23:39:17.638Z,51.70
2022-11-30T23:41:45.172Z,43.13
2022-11-30T23:44:12.825Z,44.50
2022-11-30T23:46:40.136Z,35.37
2022-11-30T23:49:08.255Z,48.53
2022-11-30T23:51:35.655Z,45.43
2022-11-30T23:54:02.905Z,40.87
2022-11-30T23:56:29.936Z,48.40
2022-11-30T23:58:57.041Z,40.10
